M I D A S
Marine Information and Data Acquisition System
Tripno 430 of the Zeeleeuw from 2003-02-13 07:17:29 to 2003-02-13 14:59:40
Back to CruiseResearch ActivitiesStationsMapUnderway DataData graphs

EquipmentUnitsComment
TimeDGPSUTC
LatitudeDGPSDM.mWGS84
LongitudeDGPSDM.mWGS84
HeadingGyrodeg 
SOGDGPSknotsSpeed over ground
COGDGPSdegCourse over ground
DepthEcho soundermeters200 kHz
Missing or incorrect values are displayed as -999
Navigation data collected by the RV Zeeleeuw from 2003-02-13 07:17:29 to 2003-02-13 14:59:40
                                                                                    Next 1000 lines
Time Latitude Longitude Heading SOG COG Depth
2003-02-13 07:17:37 51°13.595 2°56.103 125.8 0.1 112.5 -999
2003-02-13 07:17:42 51°13.595 2°56.103 125.6   25.4 -999
2003-02-13 07:17:47 51°13.595 2°56.103 125   240.6 -999
2003-02-13 07:17:52 51°13.595 2°56.103 124.1 0.1 221.1 -999
2003-02-13 07:17:57 51°13.595 2°56.103 122.7   169 -999
2003-02-13 07:18:02 51°13.595 2°56.103 121.8   175.3 -999
2003-02-13 07:18:07 51°13.595 2°56.103 120.7   202.1 -999
2003-02-13 07:18:12 51°13.594 2°56.103 119.7 0.1 212.8 -999
2003-02-13 07:18:17 51°13.594 2°56.103 118.7 0.1 208.2 -999
2003-02-13 07:18:22 51°13.594 2°56.103 117.7 0.1 198.9 -999
2003-02-13 07:18:27 51°13.594 2°56.103 116.6   201.5 7
2003-02-13 07:18:32 51°13.594 2°56.103 115.6 0.1 203.6 -999
2003-02-13 07:18:37 51°13.594 2°56.103 114.6 0.1 216.3 7.1
2003-02-13 07:18:42 51°13.594 2°56.102 114 0.1 259.2 7
2003-02-13 07:18:47 51°13.594 2°56.102 113.6 0.1 282.6 -999
2003-02-13 07:18:52 51°13.594 2°56.101 113.4 0.3 293.1 -999
2003-02-13 07:18:57 51°13.595 2°56.1 113.4 0.5 292.3 -999
2003-02-13 07:19:02 51°13.596 2°56.097 113.5 0.9 292 -999
2003-02-13 07:19:07 51°13.596 2°56.094 113.9 1.4 292.1 -999
2003-02-13 07:19:12 51°13.597 2°56.09 114.1 1.7 292.9 -999
2003-02-13 07:19:16 51°13.598 2°56.086 114.4 2 292.4 -999
2003-02-13 07:19:22 51°13.6 2°56.081 114.7 2.3 292.5 -999
2003-02-13 07:19:27 51°13.601 2°56.075 115 2.5 292.7 -999
2003-02-13 07:19:32 51°13.603 2°56.069 115.1 2.9 292.3 -999
2003-02-13 07:19:37 51°13.605 2°56.062 115.2 3.1 292.2 -999
2003-02-13 07:19:42 51°13.606 2°56.055 115.4 3.4 292.1 -999
2003-02-13 07:19:47 51°13.608 2°56.048 115.7 3.6 292 -999
2003-02-13 07:19:52 51°13.61 2°56.04 116.1 3.7 292.2 -999
2003-02-13 07:19:57 51°13.612 2°56.031 116.4 3.9 292.2 -999
2003-02-13 07:20:02 51°13.614 2°56.023 116.9 4.1 292.3 -999
2003-02-13 07:20:07 51°13.617 2°56.014 117.5 4.2 292.6 -999
2003-02-13 07:20:12 51°13.619 2°56.006 118.3 4.2 293.1 -999
2003-02-13 07:20:17 51°13.621 2°55.998 119 4.1 293.6 -999
2003-02-13 07:20:22 51°13.623 2°55.99 119.7 4 293.9 -999
2003-02-13 07:20:27 51°13.626 2°55.982 120.4 4 294.6 -999
2003-02-13 07:20:32 51°13.628 2°55.974 121.1 3.9 295.4 -999
2003-02-13 07:20:37 51°13.631 2°55.967 121.7 3.9 296.3 -999
2003-02-13 07:20:42 51°13.634 2°55.959 122.4 3.9 297 -999
2003-02-13 07:20:47 51°13.636 2°55.951 123 3.9 298 -999
2003-02-13 07:20:52 51°13.639 2°55.943 123.7 4 298.6 -999
2003-02-13 07:20:57 51°13.642 2°55.935 124.2 4.1 299.6 -999
2003-02-13 07:21:02 51°13.645 2°55.927 124.7 4.2 300.5 -999
2003-02-13 07:21:07 51°13.648 2°55.919 124.9 4.3 301.1 -999
2003-02-13 07:21:12 51°13.652 2°55.911 125.2 4.3 301.6 -999
2003-02-13 07:21:17 51°13.655 2°55.904 125.3 4.3 302 -999
2003-02-13 07:21:22 51°13.657 2°55.896 125.6 4 302.7 -999
2003-02-13 07:21:27 51°13.66 2°55.89 125.8 3.7 302.7 -999
2003-02-13 07:21:32 51°13.662 2°55.885 125 3.1 302.7 -999
2003-02-13 07:21:37 51°13.664 2°55.881 123.8 2.6 303.7 -999
2003-02-13 07:21:42 51°13.665 2°55.878 122 2.2 303.8 -999
2003-02-13 07:21:47 51°13.666 2°55.876 119.5 1.5 305.4 -999
2003-02-13 07:21:52 51°13.667 2°55.874 116.6 1.2 304.6 -999
2003-02-13 07:21:57 51°13.668 2°55.873 114.5 0.9 304 -999
2003-02-13 07:22:02 51°13.668 2°55.871 113.4 1 302.1 -999
2003-02-13 07:22:07 51°13.669 2°55.868 112.6 1.1 301.3 -999
2003-02-13 07:22:12 51°13.67 2°55.865 112 1.4 298 -999
2003-02-13 07:22:16 51°13.671 2°55.862 111.3 1.7 296.2 -999
2003-02-13 07:22:22 51°13.673 2°55.856 110.3 2.1 293.7 -999
2003-02-13 07:22:27 51°13.674 2°55.851 108.8 2.4 292.5 -999
2003-02-13 07:22:32 51°13.675 2°55.845 107.4 2.6 290.7 -999
2003-02-13 07:22:37 51°13.677 2°55.839 105.6 2.9 288 -999
2003-02-13 07:22:42 51°13.678 2°55.832 103.9 3.1 285.8 -999
2003-02-13 07:22:47 51°13.679 2°55.825 102.2 3.2 284.3 -999
2003-02-13 07:22:52 51°13.68 2°55.817 100.6 3.4 282.7 -999
2003-02-13 07:22:57 51°13.681 2°55.81 99.2 3.5 280.9 -999
2003-02-13 07:23:02 51°13.682 2°55.802 97.7 3.6 278.9 -999
2003-02-13 07:23:07 51°13.682 2°55.794 96.4 3.7 277.6 -999
2003-02-13 07:23:12 51°13.683 2°55.785 95 3.7 276.4 -999
2003-02-13 07:23:17 51°13.683 2°55.777 93.6 3.7 275.2 -999
2003-02-13 07:23:22 51°13.684 2°55.77 92.3 3.6 274.4 -999
2003-02-13 07:23:27 51°13.684 2°55.762 91 3.5 273.2 -999
2003-02-13 07:23:32 51°13.684 2°55.755 89.6 3.4 272 -999
2003-02-13 07:23:37 51°13.684 2°55.748 88.2 3.3 271 -999
2003-02-13 07:23:42 51°13.684 2°55.741 86.9 3.1 270 -999
2003-02-13 07:23:47 51°13.684 2°55.735 85.6 3 269.5 -999
2003-02-13 07:23:52 51°13.684 2°55.729 84 2.8 269.1 -999
2003-02-13 07:23:57 51°13.684 2°55.725 81.6 2.2 269.4 -999
2003-02-13 07:24:02 51°13.684 2°55.723 77.6 1.5 273.1 -999
2003-02-13 07:24:07 51°13.685 2°55.722 72.5 1 280 -999
2003-02-13 07:24:12 51°13.685 2°55.721 67.5 0.6 295.6 -999
2003-02-13 07:24:17 51°13.686 2°55.722 62.6 0.4 339 -999
2003-02-13 07:24:22 51°13.687 2°55.722 57.6 0.5 4.9 -999
2003-02-13 07:24:27 51°13.688 2°55.723 52.7 0.8 23.6 -999
2003-02-13 07:24:32 51°13.69 2°55.724 47.5 0.9 25 -999
2003-02-13 07:24:37 51°13.691 2°55.725 42.3 1.2 25.6 -999
2003-02-13 07:24:42 51°13.693 2°55.726 37 1.4 23.7 -999
2003-02-13 07:24:47 51°13.695 2°55.727 31.7 1.5 21.4 -999
2003-02-13 07:24:52 51°13.698 2°55.728 26.2 1.7 17.9 -999
2003-02-13 07:24:56 51°13.7 2°55.729 20.7 1.9 13.5 -999
2003-02-13 07:25:02 51°13.704 2°55.73 15.2 1.8 8.7 -999
2003-02-13 07:25:07 51°13.707 2°55.73 9.6 1.9 4.9 -999
2003-02-13 07:25:12 51°13.71 2°55.729 4.2 2.2 1.3 -999
2003-02-13 07:25:17 51°13.713 2°55.728 359 2.5 357.3 -999
2003-02-13 07:25:22 51°13.718 2°55.727 354.8 2.8 351.6 -999
2003-02-13 07:25:27 51°13.722 2°55.725 351.2 3 348.7 12
2003-02-13 07:25:31 51°13.725 2°55.724 348.6 3.2 346 11.4
2003-02-13 07:25:37 51°13.731 2°55.72 346.5 3.4 342.4 11.1
2003-02-13 07:25:42 51°13.736 2°55.717 344.5 3.5 341.4 -999
2003-02-13 07:25:47 51°13.741 2°55.714 342.4 3.9 338.3 -999
2003-02-13 07:25:52 51°13.746 2°55.71 340.8 4 337.4 -999
2003-02-13 07:25:57 51°13.751 2°55.706 339.6 4.2 335.3 -999
2003-02-13 07:26:02 51°13.757 2°55.702 338.2 4.3 334.9 -999
2003-02-13 07:26:07 51°13.762 2°55.698 337.1 4.5 333.4 -999
2003-02-13 07:26:12 51°13.768 2°55.693 336.4 4.6 333.2 11.2
2003-02-13 07:26:16 51°13.773 2°55.689 336.2 4.8 332.5 -999
2003-02-13 07:26:22 51°13.78 2°55.683 335.8 5 332.3 -999
2003-02-13 07:26:27 51°13.787 2°55.677 335.1 5.1 331.3 11.8
2003-02-13 07:26:32 51°13.793 2°55.671 333.9 5.2 331 -999
2003-02-13 07:26:36 51°13.798 2°55.666 333.1 5.4 329.2 11.8
2003-02-13 07:26:42 51°13.806 2°55.658 333.2 5.5 329.1 -999
2003-02-13 07:26:46 51°13.811 2°55.653 333.8 5.6 329.3 11.6
2003-02-13 07:26:51 51°13.818 2°55.647 335.2 5.7 329.9 11.4
2003-02-13 07:26:56 51°13.825 2°55.64 336.6 5.9 331.5 11.5
2003-02-13 07:27:01 51°13.833 2°55.634 337.2 6 332.4 -999
2003-02-13 07:27:07 51°13.842 2°55.627 337.2 6.3 333.3 11.4
2003-02-13 07:27:11 51°13.849 2°55.622 337.7 6.4 333.8 -999
2003-02-13 07:27:16 51°13.857 2°55.616 338.6 6.6 334.4 -999
2003-02-13 07:27:22 51°13.868 2°55.608 338.5 6.8 335.2 -999
2003-02-13 07:27:27 51°13.876 2°55.602 338.4 6.8 335.2 -999
2003-02-13 07:27:32 51°13.886 2°55.595 339.1 7.1 335.1 -999
2003-02-13 07:27:37 51°13.895 2°55.588 339.2 7.3 335.7 -999
2003-02-13 07:27:42 51°13.904 2°55.581 338.9 7.6 335.3 -999
2003-02-13 07:27:47 51°13.914 2°55.574 339.1 7.8 335.2 -999
2003-02-13 07:27:52 51°13.925 2°55.566 339.5 8.1 334.9 -999
2003-02-13 07:27:57 51°13.935 2°55.558 339.5 8.3 335.3 -999
2003-02-13 07:28:02 51°13.946 2°55.55 340.4 8.4 335 -999
2003-02-13 07:28:07 51°13.957 2°55.543 341.3 8.6 336.5 -999
2003-02-13 07:28:12 51°13.968 2°55.535 341.6 8.6 336.9 10.9
2003-02-13 07:28:17 51°13.979 2°55.528 342.1 8.8 337.6 -999
2003-02-13 07:28:22 51°13.991 2°55.521 342.6 8.9 338.2 10.9
2003-02-13 07:28:26 51°14 2°55.515 343.1 9 338.6 10.9
2003-02-13 07:28:31 51°14.012 2°55.507 343.2 9 338.7 10.9
2003-02-13 07:28:37 51°14.026 2°55.499 342.8 9 338.7 10.9
2003-02-13 07:28:42 51°14.038 2°55.491 341.8 9.2 337.8 10.9
2003-02-13 07:28:46 51°14.047 2°55.484 341.5 9.2 337.3 10.9
2003-02-13 07:28:51 51°14.059 2°55.476 341.5 9.2 337.1 10.9
2003-02-13 07:28:56 51°14.07 2°55.468 341.1 9.2 336.7 10.6
2003-02-13 07:29:01 51°14.082 2°55.46 340.4 9.3 336.2 10.4
2003-02-13 07:29:07 51°14.097 2°55.449 340.7 9.3 335.6 -999
2003-02-13 07:29:12 51°14.108 2°55.441 340.6 9.3 335.9 -999
2003-02-13 07:29:17 51°14.12 2°55.432 339.5 9.3 335.2 -999
2003-02-13 07:29:22 51°14.132 2°55.423 339.3 9.3 334.5 -999
2003-02-13 07:29:27 51°14.144 2°55.414 339.5 9.3 334.6 -999
2003-02-13 07:29:32 51°14.155 2°55.405 338.3 9.3 334.3 -999
2003-02-13 07:29:37 51°14.166 2°55.395 336.6 9.3 333.2 -999
2003-02-13 07:29:42 51°14.178 2°55.385 334.9 9.3 331.4 -999
2003-02-13 07:29:47 51°14.189 2°55.374 333.8 9.3 329.9 10.8
2003-02-13 07:29:51 51°14.197 2°55.366 332.7 9.3 328.7 10.8
2003-02-13 07:29:56 51°14.208 2°55.354 330.9 9.3 327 11
2003-02-13 07:30:01 51°14.219 2°55.342 328.4 9.3 325.9 10.8
2003-02-13 07:30:06 51°14.229 2°55.329 327.3 9.3 322.8 11.1
2003-02-13 07:30:12 51°14.241 2°55.314 326.6 9.3 322.1 -999
2003-02-13 07:30:17 51°14.251 2°55.3 323.8 9.3 320.7 -999
2003-02-13 07:30:22 51°14.26 2°55.286 321.6 9.3 317.8 -999
2003-02-13 07:30:27 51°14.269 2°55.271 320.4 9.3 316 11.3
2003-02-13 07:30:32 51°14.277 2°55.256 319.1 9.3 315.3 -999
2003-02-13 07:30:36 51°14.284 2°55.244 317.1 9.3 313.3 -999
2003-02-13 07:30:42 51°14.294 2°55.225 315.1 9.3 311.4 -999
2003-02-13 07:30:47 51°14.303 2°55.209 314.6 9.4 310.4 11.3
2003-02-13 07:30:51 51°14.309 2°55.197 314.5 9.4 310.2 -999
2003-02-13 07:30:56 51°14.318 2°55.181 314.3 9.4 309.9 11.4
2003-02-13 07:31:01 51°14.326 2°55.165 314.2 9.4 309.9 11.4
2003-02-13 07:31:06 51°14.334 2°55.149 314.2 9.4 309.8 11.4
2003-02-13 07:31:11 51°14.343 2°55.133 314.2 9.4 309.9 10.6
2003-02-13 07:31:16 51°14.351 2°55.118 314.2 9.4 309.9 10.5
2003-02-13 07:31:21 51°14.36 2°55.102 315.1 9.4 310.3 10.9
2003-02-13 07:31:26 51°14.368 2°55.087 317.1 9.3 312.2 11.2
2003-02-13 07:31:31 51°14.378 2°55.073 320.2 9.3 314.3 11.3
2003-02-13 07:31:36 51°14.388 2°55.06 322.2 9.3 318 11.5
2003-02-13 07:31:41 51°14.398 2°55.047 323.1 9.3 318.9 11.6
2003-02-13 07:31:46 51°14.408 2°55.034 323.4 9.4 320.9 11.5
2003-02-13 07:31:51 51°14.418 2°55.02 323.2 9.4 321 11.4
2003-02-13 07:31:56 51°14.428 2°55.007 322.9 9.4 321 11.3
2003-02-13 07:32:01 51°14.439 2°54.993 322.5 9.4 321.1 11.1
2003-02-13 07:32:07 51°14.45 2°54.977 322.1 9.4 320.8 11.2
2003-02-13 07:32:11 51°14.458 2°54.967 321.3 9.4 320.3 11.2
2003-02-13 07:32:16 51°14.468 2°54.953 320.2 9.4 320.3 11.1
2003-02-13 07:32:21 51°14.477 2°54.939 319.3 9.4 318.3 10.9
2003-02-13 07:32:26 51°14.487 2°54.925 318.2 9.4 317.1 11.1
2003-02-13 07:32:32 51°14.498 2°54.908 317.5 9.4 316.2 11
2003-02-13 07:32:36 51°14.505 2°54.896 317 9.4 315.6 10.9
2003-02-13 07:32:41 51°14.514 2°54.881 316.1 9.3 314.7 10.9
2003-02-13 07:32:46 51°14.523 2°54.867 315.5 9.4 314.5 11
2003-02-13 07:32:51 51°14.532 2°54.852 316.8 9.4 315 11
2003-02-13 07:32:56 51°14.542 2°54.838 319.4 9.4 316.4 10.9
2003-02-13 07:33:01 51°14.552 2°54.824 321.3 9.4 318.2 10.9
2003-02-13 07:33:06 51°14.562 2°54.81 321.6 9.5 319.2 10.9
2003-02-13 07:33:11 51°14.574 2°54.795 321.5 10.1 319.5 10.8
2003-02-13 07:33:16 51°14.585 2°54.779 321.5 10.5 319.3 10.8
2003-02-13 07:33:21 51°14.597 2°54.763 321.6 10.9 319.5 10.8
2003-02-13 07:33:26 51°14.609 2°54.747 322 11.2 319.6 10.8
2003-02-13 07:33:31 51°14.621 2°54.73 321.8 11.2 319.6 10.6
2003-02-13 07:33:36 51°14.634 2°54.712 320.8 11.6 318.9 10.6
2003-02-13 07:33:41 51°14.646 2°54.694 319.1 11.7 318.1 10.6
2003-02-13 07:33:46 51°14.657 2°54.676 317.4 11.9 315.9 10.6
2003-02-13 07:33:51 51°14.669 2°54.657 316.1 12 314.5 10.6
2003-02-13 07:33:56 51°14.68 2°54.637 315.7 12.1 313.2 10.6
2003-02-13 07:34:01 51°14.691 2°54.617 314.3 12.1 311.7 10.6
2003-02-13 07:34:06 51°14.701 2°54.595 310.6 12 308.5 10.7
2003-02-13 07:34:11 51°14.709 2°54.572 303.9 12 304.4 10.8
2003-02-13 07:34:16 51°14.716 2°54.549 298.2 11.9 298.6 11
2003-02-13 07:34:21 51°14.722 2°54.524 294 11.9 295.3 10.8
2003-02-13 07:34:26 51°14.726 2°54.499 289.5 11.8 287.8 10.9
2003-02-13 07:34:31 51°14.73 2°54.473 285.5 11.8 284.8 10.9
2003-02-13 07:34:36 51°14.733 2°54.448 283.4 11.9 281.2 11
2003-02-13 07:34:41 51°14.735 2°54.422 279.8 11.9 278.1 11.1
2003-02-13 07:34:46 51°14.735 2°54.396 275.2 11.9 277.3 11.3
2003-02-13 07:34:52 51°14.735 2°54.364 271 11.8 270.8 11.2
2003-02-13 07:34:56 51°14.734 2°54.343 269 11.9 267.7 11.2
2003-02-13 07:35:01 51°14.734 2°54.317 272.2 11.9 269 11.3
2003-02-13 07:35:06 51°14.736 2°54.291 277.2 11.9 269.6 11.3
2003-02-13 07:35:11 51°14.74 2°54.265 281.7 11.9 278.9 11.3
2003-02-13 07:35:16 51°14.743 2°54.239 283.3 12 280.3 11.1
2003-02-13 07:35:20 51°14.746 2°54.218 284.5 12 281.1 11.2
2003-02-13 07:35:27 51°14.751 2°54.182 285 12.1 282.9 11.1
2003-02-13 07:35:31 51°14.754 2°54.161 285.9 12.1 282.9 11.2
2003-02-13 07:35:36 51°14.759 2°54.135 287 12.2 284.1 11.1
2003-02-13 07:35:41 51°14.763 2°54.108 288.1 12.2 285 11.2
2003-02-13 07:35:47 51°14.769 2°54.078 288.8 12.2 285.6 11.1
2003-02-13 07:35:51 51°14.773 2°54.057 288.9 12.2 286.9 11.1
2003-02-13 07:35:56 51°14.779 2°54.031 290.1 12.2 287.3 11
2003-02-13 07:36:00 51°14.783 2°54.011 291.4 12.3 288.4 11
2003-02-13 07:36:06 51°14.79 2°53.98 291.7 12.3 289.4 11.1
2003-02-13 07:36:11 51°14.796 2°53.954 291.7 12.3 289.3 11.1
2003-02-13 07:36:16 51°14.801 2°53.928 290.8 12.3 288.8 11
2003-02-13 07:36:21 51°14.806 2°53.903 290.5 12.3 287.9 11.2
2003-02-13 07:36:26 51°14.812 2°53.877 292.2 12.3 288.6 10.9
2003-02-13 07:36:31 51°14.818 2°53.852 292.7 12.3 289.9 10.9
2003-02-13 07:36:36 51°14.824 2°53.826 292.7 12.3 290 10.7
2003-02-13 07:36:41 51°14.829 2°53.8 292.1 12.3 289.5 10.8
2003-02-13 07:36:46 51°14.835 2°53.775 291.8 12.3 289.2 10.8
2003-02-13 07:36:51 51°14.84 2°53.749 291.6 12.3 289.2 11
2003-02-13 07:36:56 51°14.846 2°53.724 291.7 12.2 288.6 10.9
2003-02-13 07:37:01 51°14.851 2°53.698 291.3 12.2 288.6 10.9
2003-02-13 07:37:06 51°14.856 2°53.672 290.8 12.2 287.7 11
2003-02-13 07:37:11 51°14.861 2°53.646 290.8 12.2 287.8 11.1
2003-02-13 07:37:16 51°14.866 2°53.621 290.5 12.2 287.4 11
2003-02-13 07:37:20 51°14.87 2°53.6 289.7 12.2 286.8 11
2003-02-13 07:37:26 51°14.876 2°53.569 290 12.2 286.4 11.1
2003-02-13 07:37:31 51°14.881 2°53.544 291.6 12.2 287.5 10.9
2003-02-13 07:37:36 51°14.886 2°53.518 291.9 12.2 288.4 11
2003-02-13 07:37:41 51°14.892 2°53.492 292 12.2 288.4 11.1
2003-02-13 07:37:46 51°14.897 2°53.467 291.7 12.2 288.4 11.3
2003-02-13 07:37:51 51°14.903 2°53.441 291 12.3 288 11.1
2003-02-13 07:37:56 51°14.908 2°53.414 290.9 12.5 287.6 11.2
2003-02-13 07:38:01 51°14.913 2°53.387 291.1 12.8 287.8 11.1
2003-02-13 07:38:06 51°14.919 2°53.36 291.7 12.9 288 11.2
2003-02-13 07:38:11 51°14.925 2°53.332 292.3 13.1 288.4 11.3
2003-02-13 07:38:16 51°14.931 2°53.304 292.5 13.3 288.7 11.3
2003-02-13 07:38:21 51°14.937 2°53.276 292.4 13.3 288.7 11.3
2003-02-13 07:38:26 51°14.943 2°53.248 292.7 13.5 288.9 11.3
2003-02-13 07:38:31 51°14.949 2°53.219 292.7 13.5 289 11.5
2003-02-13 07:38:36 51°14.955 2°53.191 293.2 13.6 289.4 11.5
2003-02-13 07:38:42 51°14.963 2°53.157 293 13.6 289.4 11.5
2003-02-13 07:38:46 51°14.968 2°53.134 292.9 13.7 288.9 11.3
2003-02-13 07:38:51 51°14.974 2°53.105 293 13.7 289 11.5
2003-02-13 07:38:56 51°14.98 2°53.076 293 13.8 288.9 11.5
2003-02-13 07:39:01 51°14.986 2°53.047 292.6 13.8 288.6 11.5
2003-02-13 07:39:06 51°14.992 2°53.018 292.5 13.9 288.5 11.5
2003-02-13 07:39:11 51°14.998 2°52.989 292.7 13.9 288.6 11.4
2003-02-13 07:39:16 51°15.005 2°52.96 293 13.9 288.6 11.5
2003-02-13 07:39:21 51°15.011 2°52.931 293 13.9 288.9 11.6
2003-02-13 07:39:26 51°15.017 2°52.902 293.1 13.9 288.9 11.6
2003-02-13 07:39:31 51°15.023 2°52.872 292.8 13.9 288.9 11.7
2003-02-13 07:39:36 51°15.03 2°52.844 293.1 13.9 289.1 11.6
2003-02-13 07:39:41 51°15.036 2°52.814 293.1 13.9 289.1 11.9
2003-02-13 07:39:46 51°15.043 2°52.785 293.3 14 289.2 11.7
2003-02-13 07:39:51 51°15.049 2°52.756 293 14 289.1 11.8
2003-02-13 07:39:56 51°15.055 2°52.727 292.5 14 288.7 12
2003-02-13 07:40:01 51°15.061 2°52.698 292.5 14 288.7 11.9
2003-02-13 07:40:06 51°15.067 2°52.668 292.5 14 288.7 11.8
2003-02-13 07:40:11 51°15.073 2°52.639 292.5 14 288.7 11.8
2003-02-13 07:40:16 51°15.08 2°52.61 292.6 14 288.8 12.1
2003-02-13 07:40:21 51°15.086 2°52.58 292.6 14 288.7 12
2003-02-13 07:40:26 51°15.092 2°52.551 292.6 14 288.9 12.2
2003-02-13 07:40:31 51°15.099 2°52.522 293 14 289.1 12.1
2003-02-13 07:40:36 51°15.105 2°52.493 293.2 14 289.3 12.1
2003-02-13 07:40:41 51°15.111 2°52.463 293 14 289.1 12.2
2003-02-13 07:40:46 51°15.117 2°52.434 292.9 14 289.2 12.2
2003-02-13 07:40:52 51°15.125 2°52.399 292.9 14 289.1 12.3
2003-02-13 07:40:56 51°15.131 2°52.375 293.2 14 289.5 12.4
2003-02-13 07:41:01 51°15.137 2°52.346 293.2 14 289.5 12.4
2003-02-13 07:41:07 51°15.145 2°52.311 293.2 14 289.6 12.5
2003-02-13 07:41:11 51°15.15 2°52.287 293.2 14.1 289.5 12.6
2003-02-13 07:41:16 51°15.156 2°52.258 293.2 14.1 289.7 12.6
2003-02-13 07:41:21 51°15.163 2°52.229 293.2 14.1 289.6 12.6
2003-02-13 07:41:26 51°15.17 2°52.199 293.1 14.1 289.4 12.7
2003-02-13 07:41:31 51°15.176 2°52.17 292.9 14.1 289.3 12.7
2003-02-13 07:41:36 51°15.182 2°52.14 293.2 14.1 289.4 12.7
2003-02-13 07:41:41 51°15.189 2°52.111 293.1 14.1 289.5 12.8
2003-02-13 07:41:46 51°15.195 2°52.082 293.2 14.1 289.4 12.8
2003-02-13 07:41:51 51°15.202 2°52.052 293.5 14.1 289.8 12.9
2003-02-13 07:41:56 51°15.209 2°52.023 293.4 14.1 290 13
2003-02-13 07:42:01 51°15.215 2°51.993 293.2 14.1 289.8 12.9
2003-02-13 07:42:06 51°15.222 2°51.964 293.1 14.1 289.8 13.1
2003-02-13 07:42:11 51°15.228 2°51.935 293 14.1 289.5 13.1
2003-02-13 07:42:17 51°15.236 2°51.899 293 14.1 289.2 13.2
2003-02-13 07:42:22 51°15.242 2°51.87 291.8 14.1 288.8 13.1
2003-02-13 07:42:26 51°15.246 2°51.846 289.5 14.1 286.3 13.1
2003-02-13 07:42:31 51°15.251 2°51.816 288.4 14.1 285.6 13.2
2003-02-13 07:42:36 51°15.255 2°51.785 286.9 14.1 284.6 13.2
2003-02-13 07:42:41 51°15.26 2°51.755 286.4 14.1 283.1 13.3
2003-02-13 07:42:46 51°15.263 2°51.724 283.7 14 282.6 13.3
2003-02-13 07:42:51 51°15.265 2°51.694 281.2 14 278.9 13.4
2003-02-13 07:42:56 51°15.267 2°51.663 279.5 14 277.4 13.3
2003-02-13 07:43:01 51°15.269 2°51.632 277.7 14 276.6 13.3
2003-02-13 07:43:06 51°15.27 2°51.601 277.1 14.1 274.5 13.3
2003-02-13 07:43:11 51°15.271 2°51.57 276.2 14.1 273.5 13.4
2003-02-13 07:43:16 51°15.272 2°51.539 275 14 272.9 13.5
2003-02-13 07:43:21 51°15.271 2°51.508 272.2 14 272.9 13.6
2003-02-13 07:43:26 51°15.27 2°51.477 270.4 14 268.1 13.6
2003-02-13 07:43:31 51°15.268 2°51.446 268.5 14 266.7 13.6
2003-02-13 07:43:36 51°15.266 2°51.415 267 14 264.7 13.6
2003-02-13 07:43:42 51°15.264 2°51.379 266.5 14 264.7 13.7
2003-02-13 07:43:46 51°15.262 2°51.354 265.9 14 263.1 13.6
2003-02-13 07:43:51 51°15.259 2°51.323 264.9 14 262.3 13.7
2003-02-13 07:43:56 51°15.257 2°51.292 265.5 14 262.2 13.7
2003-02-13 07:44:02 51°15.253 2°51.256 264.9 14 261.9 13.7
2003-02-13 07:44:06 51°15.252 2°51.231 264.6 14 262.1 13.8
2003-02-13 07:44:11 51°15.249 2°51.201 264.7 14 261.7 13.8
2003-02-13 07:44:16 51°15.246 2°51.17 264.1 14 261.9 13.8
2003-02-13 07:44:21 51°15.242 2°51.14 263.3 14 261.9 13.8
2003-02-13 07:44:26 51°15.239 2°51.109 263.4 14 260.8 13.8
2003-02-13 07:44:32 51°15.235 2°51.073 262.7 14 259.8 13.8
2003-02-13 07:44:36 51°15.233 2°51.048 262.8 14 260.1 13.9
2003-02-13 07:44:40 51°15.23 2°51.024 263 14 260.1 13.8
2003-02-13 07:44:46 51°15.226 2°50.987 263.4 14 260.4 13.9
2003-02-13 07:44:51 51°15.223 2°50.956 263.9 14 261.1 13.9
2003-02-13 07:44:56 51°15.22 2°50.926 263.9 14 261.2 14
2003-02-13 07:45:01 51°15.217 2°50.895 263.8 14 261 13.9
2003-02-13 07:45:06 51°15.214 2°50.865 263.1 14 261 14
2003-02-13 07:45:11 51°15.211 2°50.834 263.1 14 260.5 13.9
2003-02-13 07:45:16 51°15.207 2°50.804 262.4 14 260.2 14
2003-02-13 07:45:20 51°15.205 2°50.779 262.9 14 260.2 14
2003-02-13 07:45:26 51°15.2 2°50.743 262.8 14 259.9 13.9
2003-02-13 07:45:31 51°15.197 2°50.712 262.8 14 260.2 14
2003-02-13 07:45:36 51°15.194 2°50.682 262.8 14 260 14.1
2003-02-13 07:45:41 51°15.191 2°50.651 262.9 14 260.2 14
2003-02-13 07:45:47 51°15.187 2°50.615 263.1 14 260.2 14.1
2003-02-13 07:45:51 51°15.184 2°50.59 263.4 14 260.9 14.1
2003-02-13 07:45:56 51°15.181 2°50.56 263.4 14 260.6 14
2003-02-13 07:46:01 51°15.178 2°50.529 262.7 14 260.2 14.1
2003-02-13 07:46:07 51°15.174 2°50.493 262.6 14 259.5 14
2003-02-13 07:46:11 51°15.171 2°50.469 262.9 14 260 14.1
2003-02-13 07:46:16 51°15.168 2°50.438 263.2 14 260 14.1
2003-02-13 07:46:21 51°15.165 2°50.407 263.4 14 260.5 14.1
2003-02-13 07:46:26 51°15.162 2°50.377 263.8 14 260.3 14.1
2003-02-13 07:46:31 51°15.158 2°50.346 263.5 14 260.3 14.1
2003-02-13 07:46:36 51°15.155 2°50.316 263.1 14 260.3 14.1
2003-02-13 07:46:41 51°15.152 2°50.285 263.4 14 260.3 14.1
2003-02-13 07:46:46 51°15.148 2°50.255 263.1 14 260.2 14.2
2003-02-13 07:46:51 51°15.145 2°50.224 263.5 14 260.5 14.2
2003-02-13 07:46:56 51°15.142 2°50.194 263 14 259.8 14.2
2003-02-13 07:47:01 51°15.139 2°50.163 263.1 14 259.8 14.2
2003-02-13 07:47:06 51°15.135 2°50.133 263.2 14 260 14.2
2003-02-13 07:47:11 51°15.132 2°50.103 263.7 14 260 14.3
2003-02-13 07:47:16 51°15.129 2°50.072 263.4 14 260.6 14.2
2003-02-13 07:47:22 51°15.126 2°50.035 263.8 14 260.9 14.2
2003-02-13 07:47:26 51°15.123 2°50.011 263.7 14 260.8 14.3
2003-02-13 07:47:31 51°15.12 2°49.98 263.6 14 260.9 14.3
2003-02-13 07:47:36 51°15.117 2°49.95 263.8 14 260.7 14.2
2003-02-13 07:47:41 51°15.114 2°49.92 264 14 260.7 14.3
2003-02-13 07:47:47 51°15.111 2°49.883 264.1 14 261 14.2
2003-02-13 07:47:51 51°15.108 2°49.859 263.4 14 260.9 14.2
2003-02-13 07:47:56 51°15.105 2°49.828 263.6 14 260.9 14.2
2003-02-13 07:48:01 51°15.101 2°49.798 263.3 14 260.5 14.3
2003-02-13 07:48:06 51°15.099 2°49.767 263.9 14 261.2 14.3
2003-02-13 07:48:11 51°15.095 2°49.737 263.9 14 260.8 14.3
2003-02-13 07:48:16 51°15.093 2°49.706 263.8 14 261.1 14.3
2003-02-13 07:48:22 51°15.089 2°49.67 263.4 14 260.4 14.3
2003-02-13 07:48:26 51°15.086 2°49.645 263.8 14 261 14.3
2003-02-13 07:48:31 51°15.083 2°49.615 263.4 14 260.7 14.3
2003-02-13 07:48:36 51°15.08 2°49.584 264 14 261 14.4
2003-02-13 07:48:41 51°15.077 2°49.553 263.7 14 260.8 14.3
2003-02-13 07:48:46 51°15.074 2°49.523 264 14 260.6 14.2
2003-02-13 07:48:51 51°15.071 2°49.492 264 14 260.9 14.3
2003-02-13 07:48:56 51°15.068 2°49.462 263.6 14 260.9 14.3
2003-02-13 07:49:02 51°15.065 2°49.425 264.1 14 260.8 14.3
2003-02-13 07:49:06 51°15.062 2°49.401 263.2 14 260.5 14.3
2003-02-13 07:49:11 51°15.059 2°49.37 264.1 14 260.2 14.2
2003-02-13 07:49:16 51°15.055 2°49.34 263.3 14 260.5 14.2
2003-02-13 07:49:21 51°15.052 2°49.309 263.3 14 260.1 14.3
2003-02-13 07:49:27 51°15.048 2°49.273 264.2 14 260.4 14.2
2003-02-13 07:49:31 51°15.046 2°49.248 263.3 13.9 260.9 14.2
2003-02-13 07:49:36 51°15.043 2°49.218 263.5 14 260.6 14.2
2003-02-13 07:49:42 51°15.039 2°49.181 264 14 260.7 14.2
2003-02-13 07:49:46 51°15.037 2°49.157 263.9 14 261.2 14.2
2003-02-13 07:49:51 51°15.033 2°49.126 264.1 14 261 14.2
2003-02-13 07:49:56 51°15.03 2°49.096 264 14 261.2 14.3
2003-02-13 07:50:01 51°15.027 2°49.065 264 14 261.2 14.2
2003-02-13 07:50:06 51°15.024 2°49.035 264.4 14 260.8 14.2
2003-02-13 07:50:11 51°15.021 2°49.004 263.8 14 260.8 14.2
2003-02-13 07:50:16 51°15.018 2°48.973 264 14 260.7 14.1
2003-02-13 07:50:21 51°15.015 2°48.942 264.4 14 261.2 14.2
2003-02-13 07:50:26 51°15.012 2°48.912 264.7 14 261.3 14.2
2003-02-13 07:50:31 51°15.009 2°48.881 264.4 14 261.3 14.1
2003-02-13 07:50:36 51°15.006 2°48.851 263.5 14 261 14.2
2003-02-13 07:50:41 51°15.003 2°48.82 264.8 14 261.1 14
2003-02-13 07:50:46 51°15 2°48.79 263.4 13.9 260.5 14.1
2003-02-13 07:50:51 51°14.997 2°48.759 264 13.9 260.7 14
2003-02-13 07:50:56 51°14.993 2°48.729 263.9 13.9 260.3 14.1
2003-02-13 07:51:01 51°14.991 2°48.699 263.5 13.9 260.9 14.1
2003-02-13 07:51:06 51°14.987 2°48.668 263.5 13.9 260 14
2003-02-13 07:51:11 51°14.984 2°48.638 264 13.9 261.1 14.2
2003-02-13 07:51:16 51°14.981 2°48.608 264.1 13.9 261.1 14
2003-02-13 07:51:22 51°14.977 2°48.571 263.9 13.9 261.1 14
2003-02-13 07:51:26 51°14.975 2°48.547 263.7 13.9 260.6 14
2003-02-13 07:51:31 51°14.972 2°48.517 264.1 13.9 261.5 14.1
2003-02-13 07:51:36 51°14.969 2°48.486 264.1 13.9 260.5 14
2003-02-13 07:51:41 51°14.965 2°48.456 263.3 13.9 260.9 14.1
2003-02-13 07:51:46 51°14.963 2°48.426 263.7 13.9 259.9 14.1
2003-02-13 07:51:51 51°14.959 2°48.396 263.7 13.9 260.8 14.2
2003-02-13 07:51:56 51°14.956 2°48.365 264.1 13.9 261.1 14.1
2003-02-13 07:52:01 51°14.953 2°48.335 263.9 13.9 260.8 14.2
2003-02-13 07:52:07 51°14.95 2°48.298 264.3 13.9 260.6 14.3
2003-02-13 07:52:11 51°14.947 2°48.274 264.3 13.9 260.9 14.2
2003-02-13 07:52:16 51°14.944 2°48.244 264.5 13.9 261.4 14.2
2003-02-13 07:52:21 51°14.941 2°48.214 263.9 13.8 261.3 14.4
2003-02-13 07:52:26 51°14.939 2°48.183 264.4 13.9 261.5 14.4
2003-02-13 07:52:31 51°14.935 2°48.153 264.1 13.9 260.6 14.3
2003-02-13 07:52:36 51°14.932 2°48.123 264.2 13.9 261.6 14.4
2003-02-13 07:52:42 51°14.929 2°48.086 264 13.9 260.6 14.4
2003-02-13 07:52:47 51°14.926 2°48.056 264.4 13.9 261.5 14.5
2003-02-13 07:52:51 51°14.923 2°48.032 263.8 13.9 260.6 14.5
2003-02-13 07:52:56 51°14.921 2°48.001 264.4 13.9 261.4 14.4
2003-02-13 07:53:01 51°14.917 2°47.971 263.6 13.9 260.9 14.5
2003-02-13 07:53:07 51°14.914 2°47.934 264.1 13.9 260.8 14.4
2003-02-13 07:53:11 51°14.911 2°47.91 263.7 13.9 261 14.4
2003-02-13 07:53:16 51°14.908 2°47.879 264.3 13.9 261 14.4
2003-02-13 07:53:21 51°14.905 2°47.849 264.7 14 261.4 14.4
2003-02-13 07:53:26 51°14.902 2°47.818 264.5 13.9 261.6 14.4
2003-02-13 07:53:31 51°14.899 2°47.788 264.5 13.9 261.5 14.5
2003-02-13 07:53:36 51°14.897 2°47.757 264.3 13.9 261.7 14.5
2003-02-13 07:53:41 51°14.893 2°47.727 264.1 13.9 261.3 14.4
2003-02-13 07:53:47 51°14.89 2°47.691 263.9 13.9 260.9 14.5
2003-02-13 07:53:51 51°14.887 2°47.666 264.1 14 260.7 14.4
2003-02-13 07:53:56 51°14.884 2°47.636 264.1 14 261.4 14.5
2003-02-13 07:54:02 51°14.881 2°47.599 264.4 14 261.4 14.5
2003-02-13 07:54:06 51°14.878 2°47.575 264.6 13.9 261.6 14.4
2003-02-13 07:54:11 51°14.876 2°47.544 264.1 13.9 261 14.4
2003-02-13 07:54:16 51°14.873 2°47.514 264.6 13.9 262 14.4
2003-02-13 07:54:21 51°14.87 2°47.484 264.1 13.9 261.2 14.5
2003-02-13 07:54:26 51°14.868 2°47.453 264.3 13.9 261.7 14.4
2003-02-13 07:54:31 51°14.865 2°47.423 264.2 13.9 261.5 14.5
2003-02-13 07:54:36 51°14.862 2°47.392 264.5 13.9 261.8 14.4
2003-02-13 07:54:41 51°14.859 2°47.362 264 13.9 261.8 14.3
2003-02-13 07:54:46 51°14.856 2°47.332 264.4 13.9 261.6 14.3
2003-02-13 07:54:51 51°14.853 2°47.301 264.1 13.9 261.1 14.3
2003-02-13 07:54:56 51°14.85 2°47.271 264.1 13.9 261.3 14.2
2003-02-13 07:55:01 51°14.847 2°47.241 263.7 13.9 261.3 14.2
2003-02-13 07:55:06 51°14.844 2°47.21 264.1 13.9 261.1 14
2003-02-13 07:55:11 51°14.841 2°47.18 264 13.9 260.7 13.8
2003-02-13 07:55:16 51°14.838 2°47.15 264 13.9 261.1 13.8
2003-02-13 07:55:21 51°14.835 2°47.12 264 13.9 261 13.6
2003-02-13 07:55:26 51°14.831 2°47.089 263.4 13.9 260.5 13.6
2003-02-13 07:55:31 51°14.829 2°47.059 264.2 13.9 260.5 13.5
2003-02-13 07:55:36 51°14.825 2°47.029 264.1 13.8 261 13.4
2003-02-13 07:55:42 51°14.822 2°46.993 264.3 13.8 260.7 13.2
2003-02-13 07:55:46 51°14.819 2°46.969 263.7 13.8 261 12.9
2003-02-13 07:55:51 51°14.816 2°46.939 263.4 13.8 260.5 13.1
2003-02-13 07:55:56 51°14.813 2°46.909 263.6 13.8 260.4 12.6
2003-02-13 07:56:01 51°14.81 2°46.879 264.3 13.8 260 13
2003-02-13 07:56:07 51°14.806 2°46.842 263.7 13.8 260.5 12.3
2003-02-13 07:56:11 51°14.804 2°46.818 264.1 13.9 260.8 12.6
2003-02-13 07:56:16 51°14.8 2°46.788 264.1 13.9 260.8 12.1
2003-02-13 07:56:21 51°14.798 2°46.757 264.1 13.9 261 12.2
2003-02-13 07:56:27 51°14.794 2°46.721 264.2 13.9 261.3 11.8
2003-02-13 07:56:31 51°14.792 2°46.697 264.4 13.8 261 11.7
2003-02-13 07:56:36 51°14.789 2°46.667 264.5 13.8 261 11.6
2003-02-13 07:56:42 51°14.785 2°46.631 264.1 13.8 261.1 11.6
2003-02-13 07:56:46 51°14.783 2°46.607 264.2 13.8 261.1 11.4
2003-02-13 07:56:51 51°14.779 2°46.577 264.2 13.8 261 11.4
2003-02-13 07:56:56 51°14.776 2°46.547 264.1 13.8 260.7 11.1
2003-02-13 07:57:01 51°14.773 2°46.517 264.1 13.7 260.7 11.1
2003-02-13 07:57:06 51°14.77 2°46.487 264 13.7 260.7 10.8
2003-02-13 07:57:11 51°14.767 2°46.457 263.9 13.7 260.7 10.9
2003-02-13 07:57:16 51°14.764 2°46.427 264.1 13.8 260.9 10.8
2003-02-13 07:57:21 51°14.761 2°46.397 264 13.8 260.5 10.6
2003-02-13 07:57:26 51°14.758 2°46.367 264.4 13.7 261.1 10.6
2003-02-13 07:57:31 51°14.754 2°46.337 264.1 13.7 260.6 10.5
2003-02-13 07:57:36 51°14.752 2°46.307 265.5 13.7 261.4 10.6
2003-02-13 07:57:40 51°14.75 2°46.283 264.5 13.7 261.3 10.6
2003-02-13 07:57:46 51°14.746 2°46.247 264.2 13.7 261.2 10.5
2003-02-13 07:57:51 51°14.743 2°46.217 264.6 13.8 261.1 10.4
2003-02-13 07:57:56 51°14.74 2°46.187 264.6 13.8 261.3 10.3
2003-02-13 07:58:00 51°14.738 2°46.163 264.5 13.8 261.2 10.4
2003-02-13 07:58:06 51°14.735 2°46.126 264.8 13.8 261.4 10.3
2003-02-13 07:58:11 51°14.731 2°46.096 264.2 13.8 261 10.2
2003-02-13 07:58:16 51°14.728 2°46.066 264.6 13.8 261 10.3
2003-02-13 07:58:22 51°14.725 2°46.03 265 13.8 261 10.2
2003-02-13 07:58:26 51°14.722 2°46.006 264.2 13.8 260.9 10.3
2003-02-13 07:58:31 51°14.72 2°45.976 264.9 13.8 261.3 10.2
2003-02-13 07:58:36 51°14.716 2°45.946 264.5 13.8 260.8 10.4
2003-02-13 07:58:41 51°14.714 2°45.915 265 13.8 261.5 10.3
2003-02-13 07:58:46 51°14.71 2°45.885 264.4 13.8 260.7 10.3
2003-02-13 07:58:51 51°14.708 2°45.855 264.1 13.8 260.8 10.4
2003-02-13 07:58:56 51°14.704 2°45.825 264.1 13.8 260.5 10.5
2003-02-13 07:59:01 51°14.701 2°45.795 264.6 13.8 260.5 10.5
2003-02-13 07:59:07 51°14.697 2°45.759 264.2 13.8 260.6 10.7
2003-02-13 07:59:11 51°14.695 2°45.734 264.3 13.8 261 10.8
2003-02-13 07:59:16 51°14.692 2°45.704 265 13.9 260.8 10.9
2003-02-13 07:59:21 51°14.689 2°45.674 264.6 13.9 261.2 11
2003-02-13 07:59:26 51°14.687 2°45.643 265.1 13.9 261 11.1
2003-02-13 07:59:31 51°14.684 2°45.613 265.8 13.9 262 11.3
2003-02-13 07:59:36 51°14.681 2°45.582 265.5 13.9 261.7 11.4
2003-02-13 07:59:41 51°14.678 2°45.552 264.9 13.9 261.6 11.6
2003-02-13 07:59:47 51°14.675 2°45.515 264.9 14 261.1 11.7
2003-02-13 07:59:52 51°14.671 2°45.485 264.7 14 261.4 11.9
2003-02-13 07:59:56 51°14.67 2°45.46 265.3 14 260.9 12
2003-02-13 08:00:01 51°14.666 2°45.43 264.8 14 261.5 12.1
2003-02-13 08:00:06 51°14.664 2°45.399 264.8 14 260.8 12.3
2003-02-13 08:00:12 51°14.66 2°45.362 264.8 14 260.8 12.4
2003-02-13 08:00:16 51°14.657 2°45.338 264.5 14 261 12.5
2003-02-13 08:00:21 51°14.654 2°45.307 264.1 14 260.5 12.7
2003-02-13 08:00:27 51°14.65 2°45.27 264.7 14 260.5 12.7
2003-02-13 08:00:31 51°14.647 2°45.246 264.1 14 260.7 12.9
2003-02-13 08:00:36 51°14.645 2°45.216 264.6 14 260.7 13
2003-02-13 08:00:41 51°14.642 2°45.185 264.6 14 261 13.1
2003-02-13 08:00:47 51°14.638 2°45.148 264.3 14 261 13.2
2003-02-13 08:00:51 51°14.635 2°45.124 264.4 14 261 13.4
2003-02-13 08:00:56 51°14.633 2°45.093 264.9 13.9 261.3 13.5
2003-02-13 08:01:00 51°14.63 2°45.069 264.6 13.9 261.4 13.6
2003-02-13 08:01:06 51°14.626 2°45.033 264.4 13.9 260.8 13.6
2003-02-13 08:01:11 51°14.623 2°45.002 264.4 14 261.1 13.8
2003-02-13 08:01:16 51°14.62 2°44.972 264.1 14 260.8 14
2003-02-13 08:01:20 51°14.617 2°44.947 264.1 13.9 260.9 14.1
2003-02-13 08:01:27 51°14.613 2°44.904 263.9 13.9 260.5 14.2
2003-02-13 08:01:31 51°14.61 2°44.88 264.2 13.9 260.7 14.4
2003-02-13 08:01:36 51°14.607 2°44.85 263.9 14 260.6 14.6
2003-02-13 08:01:41 51°14.604 2°44.819 264 14 260.6 14.8
2003-02-13 08:01:46 51°14.601 2°44.789 264.1 14 260.6 14.9
2003-02-13 08:01:51 51°14.598 2°44.758 264.1 14 260.7 15.1
2003-02-13 08:01:56 51°14.595 2°44.728 264 14 260.7 15.1
2003-02-13 08:02:02 51°14.591 2°44.691 264.1 14 260.7 15.3
2003-02-13 08:02:06 51°14.589 2°44.667 264.3 13.9 261.2 15.4
2003-02-13 08:02:11 51°14.586 2°44.637 264 13.9 260.8 15.5
2003-02-13 08:02:16 51°14.583 2°44.607 264.2 13.9 260.7 15.5
2003-02-13 08:02:21 51°14.579 2°44.576 263 13.9 260.1 15.8
2003-02-13 08:02:26 51°14.576 2°44.546 263.3 13.9 259.8 15.7
2003-02-13 08:02:31 51°14.572 2°44.516 262.8 13.9 259.8 15.7
2003-02-13 08:02:36 51°14.569 2°44.486 262.1 13.9 258.8 15.9
2003-02-13 08:02:41 51°14.565 2°44.456 262.7 13.9 259.3 15.9
2003-02-13 08:02:46 51°14.562 2°44.425 262.3 14 259.1 16
2003-02-13 08:02:51 51°14.558 2°44.395 262 14 259.1 16.2
2003-02-13 08:02:56 51°14.555 2°44.364 262.9 14 259.7 16.2
2003-02-13 08:03:01 51°14.551 2°44.334 262.7 14 259.8 16.2
2003-02-13 08:03:06 51°14.547 2°44.303 262.2 14.1 259.3 16.5
2003-02-13 08:03:11 51°14.544 2°44.272 262.8 14.2 259.8 16.4
2003-02-13 08:03:16 51°14.54 2°44.242 262.3 14.1 259.3 16.3
2003-02-13 08:03:21 51°14.537 2°44.211 262.7 14.1 259.6 16.5
2003-02-13 08:03:26 51°14.534 2°44.18 262.6 14.1 259.4 16.7
2003-02-13 08:03:31 51°14.53 2°44.15 262.8 14.1 259.4 16.9
2003-02-13 08:03:36 51°14.527 2°44.119 262.8 14.1 259.8 16.9
2003-02-13 08:03:41 51°14.523 2°44.089 262.4 14.1 259.4 17.1
2003-02-13 08:03:46 51°14.52 2°44.058 262.4 14.1 259.7 17.2
2003-02-13 08:03:51 51°14.516 2°44.028 262.3 14.1 258.9 17
2003-02-13 08:03:56 51°14.512 2°43.998 261.2 14 259.2 17.4
2003-02-13 08:04:01 51°14.508 2°43.967 261.9 14 258.3 17.5
2003-02-13 08:04:07 51°14.504 2°43.931 261.5 14 259 17.6
2003-02-13 08:04:11 51°14.501 2°43.906 262.3 14.1 258.8 17.5
2003-02-13 08:04:16 51°14.498 2°43.876 262.2 14.1 259.4 17.8
2003-02-13 08:04:21 51°14.494 2°43.845 262.1 14 259 17.3
2003-02-13 08:04:26 51°14.49 2°43.815 261.9 14 258.9 17.1
2003-02-13 08:04:31 51°14.487 2°43.785 261.9 13.9 259 17.7
2003-02-13 08:04:36 51°14.483 2°43.755 261.3 13.9 258.5 17.8
2003-02-13 08:04:41 51°14.479 2°43.724 262 13.9 258.1 17.4
2003-02-13 08:04:46 51°14.475 2°43.694 261.4 13.9 258.7 17.7
2003-02-13 08:04:51 51°14.472 2°43.664 261.9 13.9 259 18
2003-02-13 08:04:56 51°14.468 2°43.634 261.9 13.9 259.3 18
2003-02-13 08:05:01 51°14.464 2°43.604 261.7 13.9 258.7 17.9
2003-02-13 08:05:06 51°14.46 2°43.574 261.9 13.9 258.8 18
2003-02-13 08:05:11 51°14.457 2°43.544 262.2 13.9 259.3 17.9
2003-02-13 08:05:16 51°14.453 2°43.514 262 13.9 259.1 18.3
2003-02-13 08:05:21 51°14.45 2°43.484 261.8 13.9 259 18.1
2003-02-13 08:05:27 51°14.445 2°43.447 262 13.9 258.9 18.1
2003-02-13 08:05:31 51°14.443 2°43.423 262.7 14 259.8 18
2003-02-13 08:05:36 51°14.438 2°43.392 262 14 259.6 18
2003-02-13 08:05:41 51°14.436 2°43.362 263.1 14 259.6 18.2
2003-02-13 08:05:46 51°14.431 2°43.332 261.9 14 258.9 18.3
2003-02-13 08:05:52 51°14.428 2°43.296 262.7 13.9 259.7 18.2
2003-02-13 08:05:56 51°14.424 2°43.272 262.1 13.9 259.4 18.3
2003-02-13 08:06:01 51°14.421 2°43.241 261.8 13.9 258.6 18.4
2003-02-13 08:06:06 51°14.417 2°43.211 262.2 13.9 259.2 18.3
2003-02-13 08:06:11 51°14.413 2°43.181 261.6 13.8 258.8 18.5
2003-02-13 08:06:16 51°14.409 2°43.151 261.7 13.8 258.9 18.4
2003-02-13 08:06:21 51°14.406 2°43.122 261.5 13.8 258.5 18.5
2003-02-13 08:06:26 51°14.401 2°43.092 260.8 13.8 257.9 18.6
2003-02-13 08:06:31 51°14.398 2°43.061 261.8 13.9 258.1 18.6
2003-02-13 08:06:36 51°14.394 2°43.031 262 13.9 258.5 18.6
2003-02-13 08:06:41 51°14.391 2°43.001 262.4 13.9 259.9 18.7
2003-02-13 08:06:46 51°14.387 2°42.971 262.4 14 259.2 18.6
2003-02-13 08:06:51 51°14.384 2°42.941 262.9 13.9 260.2 18.7
2003-02-13 08:06:56 51°14.381 2°42.91 262.8 13.9 259.9 18.8
2003-02-13 08:07:02 51°14.376 2°42.874 262.7 13.9 259.9 18.7
2003-02-13 08:07:06 51°14.374 2°42.85 262.4 13.9 259.7 18.8
2003-02-13 08:07:11 51°14.37 2°42.819 262.6 13.9 259.7 18.7
2003-02-13 08:07:16 51°14.367 2°42.789 262.5 13.9 259.9 18.8
2003-02-13 08:07:21 51°14.363 2°42.759 262.4 13.9 259.9 18.9
2003-02-13 08:07:26 51°14.36 2°42.729 262 13.9 259.3 18.9
2003-02-13 08:07:31 51°14.356 2°42.699 261.5 13.9 259.3 18.9
2003-02-13 08:07:36 51°14.353 2°42.669 262.3 13.8 259.6 18.9
2003-02-13 08:07:41 51°14.349 2°42.639 261.6 13.8 258.8 18.9
2003-02-13 08:07:46 51°14.345 2°42.609 261.9 13.8 259.3 18.8
2003-02-13 08:07:51 51°14.342 2°42.579 262.2 13.8 259.4 18.9
2003-02-13 08:07:56 51°14.338 2°42.549 262.6 13.8 259.8 18.8
2003-02-13 08:08:01 51°14.335 2°42.519 262.4 13.8 260 18.9
2003-02-13 08:08:07 51°14.331 2°42.482 262.6 13.8 259.9 18.8
2003-02-13 08:08:11 51°14.328 2°42.458 262.2 13.8 259.6 18.7
2003-02-13 08:08:16 51°14.324 2°42.428 262.3 13.9 259.5 18.8
2003-02-13 08:08:21 51°14.321 2°42.398 262.4 13.9 259.1 18.7
2003-02-13 08:08:26 51°14.317 2°42.368 261.3 13.9 259.1 18.8
2003-02-13 08:08:31 51°14.313 2°42.338 260.7 13.9 258.3 18.8
2003-02-13 08:08:36 51°14.309 2°42.308 260.2 13.9 257.6 18.8
2003-02-13 08:08:41 51°14.304 2°42.278 259.6 13.9 257 18.9
2003-02-13 08:08:46 51°14.3 2°42.248 259.6 14 256.8 18.9
2003-02-13 08:08:51 51°14.295 2°42.218 258.9 14 256.3 18.9
2003-02-13 08:08:56 51°14.291 2°42.188 259.2 14 256.2 18.9
2003-02-13 08:09:01 51°14.286 2°42.158 259.4 14 256.5 19
2003-02-13 08:09:07 51°14.281 2°42.122 259.8 14 257 19.1
2003-02-13 08:09:11 51°14.277 2°42.098 259.1 13.9 256.9 19
2003-02-13 08:09:16 51°14.272 2°42.068 258.5 13.9 255.8 19
2003-02-13 08:09:21 51°14.268 2°42.038 258.5 13.9 256.1 19.1
2003-02-13 08:09:26 51°14.263 2°42.009 258.4 13.9 255.5 19.1
2003-02-13 08:09:31 51°14.259 2°41.979 259.5 13.9 256.2 18.9
2003-02-13 08:09:36 51°14.254 2°41.949 258.7 13.9 256.4 18.9
2003-02-13 08:09:40 51°14.25 2°41.926 259.1 13.8 256.1 18.7
2003-02-13 08:09:46 51°14.245 2°41.89 259 13.8 256.2 18.8
2003-02-13 08:09:51 51°14.241 2°41.86 259.5 13.9 256.6 18.7
2003-02-13 08:09:56 51°14.236 2°41.831 259.1 13.8 256.3 18.7
2003-02-13 08:10:02 51°14.23 2°41.795 258.1 13.8 256 18.7
2003-02-13 08:10:06 51°14.227 2°41.771 259 13.9 256.1 18.5
2003-02-13 08:10:11 51°14.223 2°41.741 260.5 13.9 257.5 18.6
2003-02-13 08:10:16 51°14.218 2°41.712 259.6 13.8 256.7 18.3
2003-02-13 08:10:21 51°14.214 2°41.682 258.7 13.8 256.3 18.4
2003-02-13 08:10:26 51°14.208 2°41.653 257.8 13.7 255.2 18.2
2003-02-13 08:10:31 51°14.203 2°41.624 257.3 13.7 254.9 18.1
2003-02-13 08:10:36 51°14.198 2°41.596 256.9 13.4 253.8 18.3
2003-02-13 08:10:41 51°14.193 2°41.571 255.3 12.6 252.9 18.2
2003-02-13 08:10:46 51°14.188 2°41.547 254 12.3 252 18.1
2003-02-13 08:10:51 51°14.183 2°41.524 253.9 12.3 252 18
2003-02-13 08:10:56 51°14.178 2°41.502 253.9 10.7 251.1 18.1
2003-02-13 08:11:01 51°14.174 2°41.482 253.8 10 251.5 18.1
2003-02-13 08:11:07 51°14.169 2°41.459 253.3 9.7 251.2 17.9
2003-02-13 08:11:11 51°14.166 2°41.445 252.2 9 250.1 17.9
2003-02-13 08:11:16 51°14.161 2°41.428 250.7 8.6 249.2 17.9
2003-02-13 08:11:21 51°14.157 2°41.413 249.5 8.1 248.2 17.9
2003-02-13 08:11:26 51°14.153 2°41.398 247.7 7.7 246.5 17.9
2003-02-13 08:11:31 51°14.148 2°41.385 245.6 7.1 244.2 17.8
2003-02-13 08:11:36 51°14.144 2°41.372 243.5 6.8 241.9 17.8
2003-02-13 08:11:41 51°14.139 2°41.36 241.8 6.6 240.8 17.9
2003-02-13 08:11:47 51°14.134 2°41.346 240 6.4 240 17.9
2003-02-13 08:11:51 51°14.13 2°41.338 238.4 6 237.6 17.9
2003-02-13 08:11:56 51°14.126 2°41.328 237.6 5.8 236.6 18
2003-02-13 08:12:01 51°14.122 2°41.318 237.2 5.6 236 18
2003-02-13 08:12:06 51°14.118 2°41.308 236.7 5.4 235.3 17.9
2003-02-13 08:12:11 51°14.114 2°41.299 237 5.4 235.3 17.7
2003-02-13 08:12:16 51°14.11 2°41.29 237.8 5.4 235.3 17.6
2003-02-13 08:12:21 51°14.106 2°41.281 238.8 5.4 235.3 17.5
2003-02-13 08:12:26 51°14.103 2°41.272 240 4.7 237.8 17.7
2003-02-13 08:12:31 51°14.1 2°41.263 241.5 4.6 239.4 17.8
2003-02-13 08:12:36 51°14.097 2°41.255 243.1 4.5 240.7 17.7
2003-02-13 08:12:41 51°14.095 2°41.246 246 4.3 243.9 17.9
2003-02-13 08:12:46 51°14.093 2°41.238 249.6 4.2 245.7 17.7
2003-02-13 08:12:51 51°14.091 2°41.229 253.3 4 250.2 17.6
2003-02-13 08:12:56 51°14.09 2°41.221 257.3 3.8 255.3 17.8
2003-02-13 08:13:01 51°14.089 2°41.213 261.2 3.7 259.3 17.6
2003-02-13 08:13:06 51°14.089 2°41.206 265.3 3.6 263.4 17.5
2003-02-13 08:13:11 51°14.089 2°41.198 269.1 3.5 267.2 17.5
2003-02-13 08:13:16 51°14.089 2°41.191 273 3.4 271.1 17.5
2003-02-13 08:13:21 51°14.09 2°41.184 276.8 3.3 276.3 17.3
2003-02-13 08:13:27 51°14.091 2°41.176 280.7 3.3 278.4 17.5
2003-02-13 08:13:31 51°14.092 2°41.17 284.5 3.2 283.8 17.5
2003-02-13 08:13:36 51°14.094 2°41.164 288.1 3.1 288.5 17.3
2003-02-13 08:13:41 51°14.095 2°41.158 291.7 3 291.6 17.3
2003-02-13 08:13:46 51°14.097 2°41.152 295.2 3 293.4 17.4
2003-02-13 08:13:51 51°14.099 2°41.147 299 2.9 299.3 17.4
2003-02-13 08:13:56 51°14.102 2°41.142 302.6 2.9 302.8 17.1
2003-02-13 08:14:02 51°14.105 2°41.136 306.2 2.9 305.8 17.1
2003-02-13 08:14:06 51°14.107 2°41.132 309.5 2.8 309.9 17.2
2003-02-13 08:14:11 51°14.11 2°41.128 313 2.8 312.7 17.1
2003-02-13 08:14:16 51°14.112 2°41.124 316.5 2.8 315.7 17.1
2003-02-13 08:14:21 51°14.115 2°41.12 319.6 2.8 318.4 16.9
2003-02-13 08:14:26 51°14.118 2°41.116 321.6 2.7 320.6 17
2003-02-13 08:14:31 51°14.121 2°41.113 323.1 2.6 322.5 17
2003-02-13 08:14:36 51°14.123 2°41.11 324.8 2.5 323.5 16.9
2003-02-13 08:14:41 51°14.126 2°41.108 327.3 2.2 325.5 17
2003-02-13 08:14:46 51°14.128 2°41.106 330.2 2 328.1 17.1
2003-02-13 08:14:51 51°14.129 2°41.105 333 1.6 332.7 17
2003-02-13 08:14:56 51°14.131 2°41.104 336 1.5 333.1 16.9
2003-02-13 08:15:02 51°14.132 2°41.103 338.9 1 336.2 16.8
2003-02-13 08:15:06 51°14.133 2°41.102 341.7 0.8 333.5 16.7
2003-02-13 08:15:11 51°14.134 2°41.102 343.6 0.6 332.5 16.8
2003-02-13 08:15:16 51°14.134 2°41.101 345.1 0.6 332.5 16.8
2003-02-13 08:15:22 51°14.136 2°41.1 345.6 0.6 332.8 16.8
2003-02-13 08:15:26 51°14.136 2°41.1 346.1 0.6 332.8 16.8
2003-02-13 08:15:31 51°14.137 2°41.099 346.2 0.6 336.6 16.7
2003-02-13 08:15:36 51°14.137 2°41.099 346.3 0.6 338.1 16.8
2003-02-13 08:15:41 51°14.138 2°41.098 346.3 0.6 338.2 16.9
2003-02-13 08:15:47 51°14.139 2°41.098 346.5 0.6 338.2 16.8
2003-02-13 08:15:51 51°14.139 2°41.097 346.7 0.6 338.6 16.8
2003-02-13 08:15:56 51°14.14 2°41.097 346.8 0.6 338.6 16.8
2003-02-13 08:16:01 51°14.141 2°41.097 346.9 0.6 340 16.8
2003-02-13 08:16:07 51°14.142 2°41.096 347 0.6 339.5 16.7
2003-02-13 08:16:11 51°14.142 2°41.096 347.2 0.6 339.1 16.8
2003-02-13 08:16:16 51°14.143 2°41.095 347.4 0.6 337.8 16.8
2003-02-13 08:16:21 51°14.144 2°41.094 347.6 0.6 337.8 16.8
2003-02-13 08:16:26 51°14.144 2°41.094 347.7 0.6 332.9 16.8
2003-02-13 08:16:31 51°14.145 2°41.094 347.9 0.6 333.9 16.7
2003-02-13 08:16:36 51°14.146 2°41.093 348.1 0.6 332.8 16.7
2003-02-13 08:16:41 51°14.147 2°41.092 348.2 0.6 331 16.8
2003-02-13 08:16:46 51°14.147 2°41.092 348.2 0.5 331 16.7
2003-02-13 08:16:51 51°14.148 2°41.091 348.3 0.5 331.2 16.7
2003-02-13 08:16:56 51°14.149 2°41.091 348.3 0.6 331.4 16.8
2003-02-13 08:17:01 51°14.149 2°41.09 348.5 0.6 332.5 16.8
2003-02-13 08:17:06 51°14.15 2°41.09 348.4 0.6 333.1 16.9
2003-02-13 08:17:11 51°14.151 2°41.089 348 0.6 333.5 16.7
2003-02-13 08:17:16 51°14.151 2°41.088 347.8 0.6 335.2 16.6
2003-02-13 08:17:21 51°14.152 2°41.088 347.6 0.6 336.8 16.6
2003-02-13 08:17:27 51°14.153 2°41.087 347.2 0.7 337.9 16.7
2003-02-13 08:17:31 51°14.154 2°41.087 346.9 0.7 337.2 16.6
2003-02-13 08:17:36 51°14.155 2°41.086 346.7 0.7 338.6 16.6
2003-02-13 08:17:41 51°14.156 2°41.085 346.4 0.7 338.6 16.6
2003-02-13 08:17:46 51°14.157 2°41.085 346.2 0.8 339.3 16.6
2003-02-13 08:17:51 51°14.158 2°41.084 346.2 0.8 337 16.6
2003-02-13 08:17:56 51°14.159 2°41.083 346.1 0.8 339.6 16.8
2003-02-13 08:18:02 51°14.16 2°41.082 346.1 0.8 339.6 16.7
2003-02-13 08:18:06 51°14.162 2°41.082 346 0.9 337.2 16.7
2003-02-13 08:18:11 51°14.163 2°41.081 345.7 0.9 335.8 16.7
2003-02-13 08:18:16 51°14.164 2°41.08 345.6 0.9 335.7 16.5
2003-02-13 08:18:21 51°14.165 2°41.079 345.2 0.9 335.9 16.5
2003-02-13 08:18:26 51°14.166 2°41.079 344.7 0.9 337.1 16.6
2003-02-13 08:18:31 51°14.168 2°41.078 344.4 0.9 337.9 16.7
2003-02-13 08:18:36 51°14.169 2°41.077 344.2 0.9 337.9 16.6
2003-02-13 08:18:41 51°14.17 2°41.077 344 0.9 339.3 16.5
2003-02-13 08:18:46 51°14.171 2°41.076 343.6 0.9 340.3 16.5
2003-02-13 08:18:51 51°14.172 2°41.075 343.3 1 339.9 16.5
2003-02-13 08:18:56 51°14.174 2°41.075 342.7 1 341 16.4
2003-02-13 08:19:01 51°14.175 2°41.074 342.5 1 341.7 16.6
2003-02-13 08:19:06 51°14.177 2°41.073 342.3 1 342 16.6
2003-02-13 08:19:11 51°14.178 2°41.073 342 1 342.3 16.5
2003-02-13 08:19:16 51°14.179 2°41.072 342 1 341.9 16.6
2003-02-13 08:19:21 51°14.181 2°41.071 341.7 1 341.3 16.4
2003-02-13 08:19:27 51°14.183 2°41.07 341.3 1 341.3 16.4
2003-02-13 08:19:31 51°14.184 2°41.07 341.1 1.1 341.8 16.4
2003-02-13 08:19:36 51°14.185 2°41.069 340.8 1.1 342.5 16.4
2003-02-13 08:19:42 51°14.187 2°41.068 340.6 1.1 341.1 16.3
2003-02-13 08:19:46 51°14.188 2°41.067 340.3 1.1 340.5 16.3
2003-02-13 08:19:52 51°14.19 2°41.067 340 1.1 340.5 16.4
2003-02-13 08:19:56 51°14.191 2°41.066 339.8 1.2 340.5 16.3
2003-02-13 08:20:02 51°14.193 2°41.065 339.4 1.2 339.8 16.5
2003-02-13 08:20:06 51°14.194 2°41.064 339.2 1.2 339.7 16.5
2003-02-13 08:20:11 51°14.196 2°41.063 339 1.2 339.7 16.4
2003-02-13 08:20:16 51°14.197 2°41.062 338.9 1.2 339.6 16.3
2003-02-13 08:20:21 51°14.199 2°41.061 338.6 1.2 340.7 16.3
2003-02-13 08:20:27 51°14.2 2°41.06 338.5 1.2 339.6 16.4
2003-02-13 08:20:31 51°14.202 2°41.06 338.3 1.2 340.9 16.4
2003-02-13 08:20:36 51°14.203 2°41.059 338.2 1.2 340.1 16.3
2003-02-13 08:20:41 51°14.205 2°41.058 338.2 1.2 339 16.2
2003-02-13 08:20:46 51°14.206 2°41.057 338.1 1.2 339 16.2
2003-02-13 08:20:51 51°14.208 2°41.056 337.9 1.2 339.1 16.3
2003-02-13 08:20:56 51°14.209 2°41.055 337.7 1.2 339.5 16.3
2003-02-13 08:21:01 51°14.211 2°41.054 337.5 1.2 338.6 16.4
2003-02-13 08:21:06 51°14.213 2°41.053 337.5 1.2 339 16.3
2003-02-13 08:21:12 51°14.215 2°41.052 337.3 1.3 339 16.1
2003-02-13 08:21:16 51°14.216 2°41.051 337.3 1.3 338.9 16.1
2003-02-13 08:21:21 51°14.218 2°41.05 337.1 1.3 339.1 16.1
2003-02-13 08:21:27 51°14.22 2°41.049 337.1 1.3 339.1 16.2
2003-02-13 08:21:31 51°14.221 2°41.048 337 1.3 339.4 16.1
2003-02-13 08:21:36 51°14.222 2°41.047 336.9 1.3 338.9 16.2
2003-02-13 08:21:41 51°14.224 2°41.046 336.8 1.3 339 16
2003-02-13 08:21:46 51°14.226 2°41.045 336.6 1.3 339.4 16.1
2003-02-13 08:21:51 51°14.228 2°41.044 336.5 1.3 338.2 15.9
2003-02-13 08:21:56 51°14.23 2°41.043 336.2 1.4 339.5 15.9
2003-02-13 08:22:01 51°14.231 2°41.042 336.2 1.4 338.6 15.9
2003-02-13 08:22:06 51°14.233 2°41.04 336 1.4 338 15.7
2003-02-13 08:22:11 51°14.235 2°41.039 335.4 1.4 338.3 15.7
2003-02-13 08:22:16 51°14.237 2°41.038 335 1.4 337.4 15.6
2003-02-13 08:22:22 51°14.239 2°41.036 334.5 1.4 335.5 15.8
2003-02-13 08:22:26 51°14.24 2°41.035 334.1 1.4 335.2 15.7
2003-02-13 08:22:31 51°14.242 2°41.035 333.2 1.4 333.7 15.7
2003-02-13 08:22:36 51°14.244 2°41.034 332.7 1.4 334.5 15.6
2003-02-13 08:22:41 51°14.246 2°41.032 332.2 1.4 334.8 15.7
2003-02-13 08:22:47 51°14.248 2°41.03 331.5 1.5 333.3 15.8
2003-02-13 08:22:51 51°14.25 2°41.028 329.4 1.8 331.9 15.5
2003-02-13 08:22:56 51°14.253 2°41.025 325.1 2.3 327.7 15.6
2003-02-13 08:23:02 51°14.257 2°41.02 318.9 2.6 323.8 15.6
2003-02-13 08:23:06 51°14.259 2°41.016 313.1 3 317.1 15.6
2003-02-13 08:23:11 51°14.262 2°41.01 304.2 3.3 310.3 15.5
2003-02-13 08:23:16 51°14.265 2°41.003 296.1 3.4 302.6 15.6
2003-02-13 08:23:21 51°14.266 2°40.995 288.3 3.5 299.3 15.6
2003-02-13 08:23:26 51°14.267 2°40.987 280.1 3.7 286.1 15.6
2003-02-13 08:23:31 51°14.267 2°40.978 272.3 3.7 282.7 15.8
2003-02-13 08:23:36 51°14.267 2°40.97 264.4 3.8 270.6 15.9
2003-02-13 08:23:41 51°14.265 2°40.961 256.5 3.8 270.6 16.2
2003-02-13 08:23:47 51°14.262 2°40.951 248.7 3.9 252.3 16.4
2003-02-13 08:23:51 51°14.26 2°40.945 240.9 4 245 16.2
2003-02-13 08:23:56 51°14.256 2°40.938 234.5 4 234.8 16.1
2003-02-13 08:24:01 51°14.252 2°40.932 225.1 4.1 228.1 16.4
2003-02-13 08:24:06 51°14.247 2°40.927 217.2 4.1 223 16.7
2003-02-13 08:24:11 51°14.243 2°40.924 211.5 3.8 210.9 16.8
2003-02-13 08:24:16 51°14.238 2°40.921 206.4 3.5 206 16.7
2003-02-13 08:24:21 51°14.234 2°40.918 203.2 3.4 204.7 16.9
2003-02-13 08:24:27 51°14.23 2°40.916 202.5 2.8 201.6 16.9
2003-02-13 08:24:31 51°14.228 2°40.914 203.7 2.5 201.6 16.9
2003-02-13 08:24:36 51°14.226 2°40.913 203.8 2.1 202.3 17
2003-02-13 08:24:40 51°14.224 2°40.912 202.5 1.8 201.6 16.9
2003-02-13 08:24:46 51°14.221 2°40.91 200.4 1.6 200.1 17
2003-02-13 08:24:51 51°14.22 2°40.909 198.7 1.5 199.6 17
2003-02-13 08:24:56 51°14.217 2°40.908 197.4 1.5 197 17
2003-02-13 08:25:01 51°14.216 2°40.908 195.9 1.4 196.2 17
2003-02-13 08:25:06 51°14.215 2°40.907 194 1.1 195.7 17.1
2003-02-13 08:25:11 51°14.214 2°40.906 192.2 1 195.2 17.1
2003-02-13 08:25:16 51°14.212 2°40.906 190.8 0.9 193.1 17.1
2003-02-13 08:25:21 51°14.211 2°40.905 189.7 0.9 192.1 17.2
2003-02-13 08:25:26 51°14.21 2°40.905 188.8 1 191.6 17.1
2003-02-13 08:25:31 51°14.208 2°40.905 187.8 1 191.4 17.2
2003-02-13 08:25:36 51°14.207 2°40.904 186.9 1 191.9 17.1
2003-02-13 08:25:41 51°14.206 2°40.904 186.2 1 190.3 17.1
2003-02-13 08:25:46 51°14.205 2°40.903 185.6 1 189.9 17.1
2003-02-13 08:25:51 51°14.203 2°40.903 185 1 187.9 17.2
2003-02-13 08:25:56 51°14.202 2°40.903 184.6 1 188.2 17.2
2003-02-13 08:26:02 51°14.2 2°40.902 184 1 186.9 17.1
2003-02-13 08:26:06 51°14.199 2°40.902 183.4 1 185.4 17.2
2003-02-13 08:26:11 51°14.198 2°40.902 182.9 1 184 17.2
2003-02-13 08:26:16 51°14.197 2°40.902 182.3 1 184.3 17.2
2003-02-13 08:26:20 51°14.196 2°40.902 181.8 1 182.5 17.2
2003-02-13 08:26:27 51°14.194 2°40.902 181.4 0.9 181.8 17.2
2003-02-13 08:26:31 51°14.193 2°40.902 180.8 0.9 181.7 17.2
2003-02-13 08:26:36 51°14.191 2°40.902 180.6 0.9 180.9 17.1
2003-02-13 08:26:41 51°14.19 2°40.902 180.1 0.9 181.1 17.2
2003-02-13 08:26:47 51°14.189 2°40.902 179.8 0.9 181.1 17.2
2003-02-13 08:26:51 51°14.188 2°40.902 179.2 0.9 179.3 17.1
2003-02-13 08:26:56 51°14.186 2°40.902 178.8 0.9 179.2 17.2
2003-02-13 08:27:01 51°14.185 2°40.902 178.5 0.9 177.9 17.2
2003-02-13 08:27:06 51°14.184 2°40.902 177.9 0.9 176.8 17.1
2003-02-13 08:27:11 51°14.182 2°40.902 177.5 1 175.4 17.1
2003-02-13 08:27:16 51°14.181 2°40.902 176.9 0.9 175.4 17.1
2003-02-13 08:27:21 51°14.18 2°40.903 176.3 0.9 174.3 17
2003-02-13 08:27:26 51°14.178 2°40.903 175.6 0.9 173.3 17
2003-02-13 08:27:31 51°14.177 2°40.903 175.1 0.9 173.3 17
2003-02-13 08:27:36 51°14.176 2°40.904 174.7 0.9 171.9 17
2003-02-13 08:27:41 51°14.175 2°40.904 174.4 0.9 172.5 16.9
2003-02-13 08:27:46 51°14.173 2°40.904 174 0.9 170.3 16.9
2003-02-13 08:27:51 51°14.172 2°40.905 173.5 0.9 170.4 16.9
2003-02-13 08:27:56 51°14.171 2°40.905 173.4 0.9 168.4 17
2003-02-13 08:28:01 51°14.169 2°40.905 172.8 0.9 168 16.9
2003-02-13 08:28:06 51°14.168 2°40.906 172.5 0.9 166 16.8
2003-02-13 08:28:11 51°14.167 2°40.907 172 0.9 166.6 16.7
2003-02-13 08:28:16 51°14.166 2°40.907 171.6 0.9 165.7 16.7
2003-02-13 08:28:21 51°14.165 2°40.907 171.2 0.9 167.2 16.6
2003-02-13 08:28:26 51°14.163 2°40.908 170.7 0.9 167.2 16.6
2003-02-13 08:28:31 51°14.162 2°40.909 170.2 0.9 163.8 16.7
2003-02-13 08:28:36 51°14.161 2°40.909 169.8 0.9 163.4 16.7
2003-02-13 08:28:41 51°14.16 2°40.91 169.2 0.9 163.1 16.6
2003-02-13 08:28:46 51°14.159 2°40.91 168.9 0.9 161.9 16.6
2003-02-13 08:28:51 51°14.157 2°40.911 168.4 0.9 161.3 16.7
2003-02-13 08:28:56 51°14.156 2°40.912 168.1 0.9 160.5 16.6
2003-02-13 08:29:01 51°14.155 2°40.913 167.7 0.9 160.3 16.6
2003-02-13 08:29:06 51°14.154 2°40.913 167.6 0.9 159.1 16.6
2003-02-13 08:29:11 51°14.153 2°40.914 167.2 0.9 158.6 16.5
2003-02-13 08:29:16 51°14.151 2°40.915 166.9 0.9 158.4 16.5
2003-02-13 08:29:22 51°14.15 2°40.916 166.7 0.9 158.2 16.5
2003-02-13 08:29:26 51°14.149 2°40.916 166.4 0.9 159 16.5
2003-02-13 08:29:31 51°14.148 2°40.917 166.2 0.9 158.8 16.4
2003-02-13 08:29:36 51°14.146 2°40.918 166 0.9 159.2 16.4
2003-02-13 08:29:41 51°14.145 2°40.919 165.6 0.9 157.4 16.4
2003-02-13 08:29:46 51°14.144 2°40.919 165.4 0.9 157.9 16.4
2003-02-13 08:29:52 51°14.143 2°40.92 165.2 0.9 156.7 16.3
2003-02-13 08:29:56 51°14.142 2°40.921 164.8 0.9 156.1 16.4
2003-02-13 08:30:01 51°14.141 2°40.922 164.5 0.9 155.8 16.3
2003-02-13 08:30:06 51°14.14 2°40.923 164.2 0.9 155.3 16.4
2003-02-13 08:30:11 51°14.139 2°40.923 164 0.9 155.2 16.3
2003-02-13 08:30:16 51°14.137 2°40.924 163.7 0.9 155.2 16.3
2003-02-13 08:30:21 51°14.136 2°40.925 163.3 0.9 155.4 16.4
2003-02-13 08:30:26 51°14.135 2°40.926 163.3 0.9 153.4 16.3
2003-02-13 08:30:31 51°14.134 2°40.927 163.1 0.9 153.4 16.3
2003-02-13 08:30:36 51°14.133 2°40.928 162.8 0.9 152.5 16.3
2003-02-13 08:30:41 51°14.132 2°40.929 162.5 0.9 152.2 16.3
2003-02-13 08:30:46 51°14.131 2°40.929 162.3 0.9 152.4 16.3
2003-02-13 08:30:52 51°14.13 2°40.931 162.2 0.9 152.7 16.3
2003-02-13 08:30:56 51°14.129 2°40.931 162.1 0.9 152.4 16.3
2003-02-13 08:31:01 51°14.128 2°40.932 161.8 0.9 152.9 16.3
2003-02-13 08:31:06 51°14.127 2°40.933 161.8 0.9 152.7 16.2
2003-02-13 08:31:11 51°14.126 2°40.934 161.7 0.9 152.4 16.3
2003-02-13 08:31:16 51°14.124 2°40.935 161.5 0.9 153.9 16.2
2003-02-13 08:31:21 51°14.123 2°40.936 161.3 0.9 153.4 16.3
2003-02-13 08:31:26 51°14.122 2°40.937 161.2 0.9 153 16.4
2003-02-13 08:31:31 51°14.121 2°40.938 161 0.9 152.5 16.3
2003-02-13 08:31:36 51°14.12 2°40.938 161 0.9 151.6 16.4
2003-02-13 08:31:41 51°14.119 2°40.939 160.8 0.9 152.7 16.4
2003-02-13 08:31:47 51°14.118 2°40.94 160.4 0.9 151.3 16.4
2003-02-13 08:31:51 51°14.117 2°40.941 160.3 0.9 151.3 16.4
2003-02-13 08:31:56 51°14.116 2°40.942 159.9 0.9 148.9 16.5
2003-02-13 08:32:02 51°14.115 2°40.943 159.6 0.9 149.2 16.5
2003-02-13 08:32:06 51°14.114 2°40.944 159.1 0.9 147.6 16.4
2003-02-13 08:32:11 51°14.113 2°40.945 158.9 0.9 147.6 16.5
2003-02-13 08:32:16 51°14.112 2°40.946 158.5 0.9 147.3 16.4
2003-02-13 08:32:22 51°14.11 2°40.947 158.2 0.9 148.1 16.4
2003-02-13 08:32:26 51°14.11 2°40.948 157.7 0.9 147.4 16.4
2003-02-13 08:32:31 51°14.109 2°40.95 157.3 0.9 147.3 16.3
2003-02-13 08:32:36 51°14.107 2°40.951 156.8 0.9 145.8 16.4
2003-02-13 08:32:41 51°14.106 2°40.952 156.4 0.9 146.5 16.4
2003-02-13 08:32:46 51°14.105 2°40.953 156.1 0.9 144.3 16.4
2003-02-13 08:32:52 51°14.104 2°40.954 155.7 0.9 144.3 16.5
2003-02-13 08:32:56 51°14.103 2°40.955 155.3 0.9 142.5 16.5
2003-02-13 08:33:01 51°14.102 2°40.956 155.3 0.9 142.8 16.6
2003-02-13 08:33:06 51°14.101 2°40.958 154.6 0.9 143.6 16.4
2003-02-13 08:33:11 51°14.1 2°40.959 154.1 0.9 143 16.6
2003-02-13 08:33:16 51°14.099 2°40.96 153.4 0.9 141.2 16.6
2003-02-13 08:33:21 51°14.098 2°40.962 152.5 0.9 140.6 16.6
2003-02-13 08:33:27 51°14.097 2°40.963 151.7 0.9 140.1 16.6
2003-02-13 08:33:31 51°14.096 2°40.964 151.1 0.9 139.3 16.7
2003-02-13 08:33:36 51°14.095 2°40.965 150.2 0.9 136.9 16.7
2003-02-13 08:33:41 51°14.094 2°40.967 149.5 0.9 136.9 16.6
2003-02-13 08:33:46 51°14.094 2°40.968 148.8 0.9 137.9 16.8
2003-02-13 08:33:51 51°14.093 2°40.97 148.2 0.9 139.2 16.9
2003-02-13 08:33:56 51°14.092 2°40.971 147.6 0.9 137.8 16.8
2003-02-13 08:34:01 51°14.091 2°40.972 146.9 0.9 138 16.8
2003-02-13 08:34:07 51°14.09 2°40.974 146.1 0.9 138.2 16.8
2003-02-13 08:34:11 51°14.089 2°40.975 145.7 0.9 135.6 16.7
2003-02-13 08:34:16 51°14.088 2°40.976 145.1 0.9 135.1 16.8
2003-02-13 08:34:22 51°14.087 2°40.978 144.5 0.8 134.1 16.9
2003-02-13 08:34:26 51°14.087 2°40.979 144 0.8 132.4 16.9
2003-02-13 08:34:32 51°14.086 2°40.981 143.4 0.8 132 16.8
2003-02-13 08:34:36 51°14.085 2°40.982 142.9 0.8 132.3 16.8
2003-02-13 08:34:41 51°14.084 2°40.983 142.6 0.8 131.6 16.8
2003-02-13 08:34:47 51°14.083 2°40.985 142.2 0.8 131.2 16.9
2003-02-13 08:34:51 51°14.083 2°40.986 142 0.8 129.6 16.9
2003-02-13 08:34:56 51°14.082 2°40.987 141.5 0.8 129.4 16.9
2003-02-13 08:35:01 51°14.082 2°40.989 140.8 0.8 129.2 16.9
2003-02-13 08:35:06 51°14.081 2°40.99 140.4 0.8 126.3 16.9
2003-02-13 08:35:11 51°14.08 2°40.991 139.7 0.8 126.4 17
2003-02-13 08:35:16 51°14.08 2°40.993 139.1 0.8 125.4 17
2003-02-13 08:35:21 51°14.079 2°40.994 138.7 0.8 124.8 16.9
2003-02-13 08:35:26 51°14.079 2°40.996 138.1 0.8 126.4 16.9
2003-02-13 08:35:31 51°14.078 2°40.997 137.8 0.8 125.2 17.1
2003-02-13 08:35:36 51°14.077 2°40.998 137.1 0.8 125.6 17.1
2003-02-13 08:35:41 51°14.076 2°41 136.6 0.8 125.6 16.9
2003-02-13 08:35:46 51°14.076 2°41.001 136.4 0.8 125.2 17
2003-02-13 08:35:51 51°14.075 2°41.002 136 0.8 123.9 17
2003-02-13 08:35:56 51°14.075 2°41.004 135.7 0.8 123.6 17
2003-02-13 08:36:01 51°14.074 2°41.005 135.7 0.8 121.2 17.2
2003-02-13 08:36:07 51°14.073 2°41.007 136 0.8 121.5 17.1
2003-02-13 08:36:11 51°14.073 2°41.008 136.6 0.8 120.5 17.2
2003-02-13 08:36:16 51°14.073 2°41.01 137.1 0.8 121.6 17.2
2003-02-13 08:36:21 51°14.072 2°41.011 137.8 0.8 122.2 17.2
2003-02-13 08:36:26 51°14.071 2°41.013 138.5 0.8 122.5 17.1
2003-02-13 08:36:32 51°14.071 2°41.014 139.3 0.8 122.5 17.2
2003-02-13 08:36:36 51°14.07 2°41.015 140 0.8 122.2 17.2
2003-02-13 08:36:41 51°14.07 2°41.016 140.6 0.8 123.2 17.1
2003-02-13 08:36:46 51°14.069 2°41.018 141.3 0.8 124.1 17
2003-02-13 08:36:51 51°14.068 2°41.019 141.9 0.8 126.2 17
2003-02-13 08:36:56 51°14.068 2°41.021 142.6 0.8 126.9 17
2003-02-13 08:37:01 51°14.067 2°41.022 143.5 0.7 128.3 17.2
2003-02-13 08:37:06 51°14.066 2°41.023 144.2 0.7 127.8 17.3
2003-02-13 08:37:11 51°14.066 2°41.025 144.6 0.8 127.8 17.4
2003-02-13 08:37:16 51°14.065 2°41.026 145.1 0.8 128.1 17.4
2003-02-13 08:37:22 51°14.064 2°41.028 145.7 0.8 129.4 17.4
2003-02-13 08:37:26 51°14.063 2°41.029 146.5 0.7 131.6 17.2
2003-02-13 08:37:31 51°14.063 2°41.03 147.2 0.8 132.1 17.2
2003-02-13 08:37:36 51°14.062 2°41.031 147.8 0.8 134.7 17.4
2003-02-13 08:37:42 51°14.061 2°41.033 147.9 0.8 132.4 17.4
2003-02-13 08:37:46 51°14.06 2°41.034 148.4 0.8 135.9 17.4
2003-02-13 08:37:51 51°14.06 2°41.035 148.7 0.8 135.8 17.4
2003-02-13 08:37:56 51°14.059 2°41.036 149.2 0.8 136.1 17.4
2003-02-13 08:38:01 51°14.058 2°41.037 149.6 0.8 136.8 17.5
2003-02-13 08:38:06 51°14.057 2°41.039 150.1 0.8 135.7 17.4
2003-02-13 08:38:11 51°14.056 2°41.04 150.6 0.8 136.5 17.4
2003-02-13 08:38:16 51°14.055 2°41.041 151.1 0.8 136.3 17.5
2003-02-13 08:38:21 51°14.055 2°41.043 151.6 0.8 137.4 17.5
2003-02-13 08:38:26 51°14.054 2°41.044 152.1 0.8 137.4 17.6
2003-02-13 08:38:31 51°14.053 2°41.045 152.4 0.9 137.6 17.6
2003-02-13 08:38:36 51°14.052 2°41.046 152.7 0.9 139.2 17.6
2003-02-13 08:38:41 51°14.051 2°41.047 153.3 0.9 138.6 17.6
2003-02-13 08:38:46 51°14.05 2°41.049 153.8 1 139.1 17.6
2003-02-13 08:38:51 51°14.049 2°41.05 154.4 1 139.2 17.6
2003-02-13 08:38:56 51°14.048 2°41.051 155.3 1 140.1 17.7
2003-02-13 08:39:01 51°14.047 2°41.053 156.1 1 139.8 17.7
2003-02-13 08:39:06 51°14.046 2°41.054 156.8 1 141.2 17.7
2003-02-13 08:39:12 51°14.044 2°41.056 157.5 1 143.4 17.6
2003-02-13 08:39:16 51°14.043 2°41.057 158.7 1 143.8 17.6
2003-02-13 08:39:21 51°14.042 2°41.058 159.7 1.1 146.4 17.8
2003-02-13 08:39:26 51°14.041 2°41.059 160.7 1.1 147.9 17.7
2003-02-13 08:39:31 51°14.04 2°41.061 161.8 1.1 149.3 17.8
2003-02-13 08:39:36 51°14.038 2°41.062 162.8 1.1 150.3 17.7
2003-02-13 08:39:41 51°14.037 2°41.063 163.9 1.1 152.1 17.7
2003-02-13 08:39:47 51°14.035 2°41.064 164.9 1.2 152.9 17.7
2003-02-13 08:39:52 51°14.034 2°41.065 166 1.2 152.8 17.8
2003-02-13 08:39:56 51°14.032 2°41.066 167.1 1.2 155.7 17.8
2003-02-13 08:40:01 51°14.031 2°41.067 168.2 1.2 157.5 17.8
2003-02-13 08:40:06 51°14.029 2°41.068 169.5 1.2 158.3 17.8
2003-02-13 08:40:11 51°14.028 2°41.069 171 1.2 158.8 17.9
2003-02-13 08:40:16 51°14.026 2°41.07 172.3 1.2 161.5 17.9
2003-02-13 08:40:20 51°14.025 2°41.071 173.6 1.3 162.8 17.9
2003-02-13 08:40:26 51°14.022 2°41.072 174.9 1.3 164.3 17.9
2003-02-13 08:40:31 51°14.021 2°41.072 176.3 1.3 165.7 18
2003-02-13 08:40:36 51°14.019 2°41.073 177.7 1.3 167.3 17.9
2003-02-13 08:40:41 51°14.017 2°41.073 179.1 1.3 168.8 17.9
2003-02-13 08:40:46 51°14.016 2°41.074 180.6 1.3 171.3 18